createdAt,value
2022-08-11T00:01:28.479Z,19.10
2022-08-11T00:03:55.833Z,19.10
2022-08-11T00:06:25.749Z,19.20
2022-08-11T00:08:52.536Z,19.10
2022-08-11T00:11:19.325Z,19.10
2022-08-11T00:13:46.647Z,19.10
2022-08-11T00:16:20.175Z,19.10
2022-08-11T00:18:47.844Z,19.10
2022-08-11T00:21:14.528Z,19.10
2022-08-11T00:23:41.918Z,19.10
2022-08-11T00:26:08.553Z,19.10
2022-08-11T00:28:35.751Z,19.10
2022-08-11T00:31:04.236Z,19.00
2022-08-11T00:33:44.481Z,19.00
2022-08-11T00:36:13.026Z,19.00
2022-08-11T00:38:40.659Z,19.00
2022-08-11T00:41:10.311Z,18.90
2022-08-11T00:43:57.103Z,18.90
2022-08-11T00:46:26.638Z,18.80
2022-08-11T00:49:08.490Z,18.80
2022-08-11T00:51:56.724Z,18.80
2022-08-11T00:55:00.712Z,18.70
2022-08-11T00:57:36.205Z,18.70
2022-08-11T01:00:14.850Z,18.60
2022-08-11T01:03:00.081Z,18.60
2022-08-11T01:05:45.989Z,18.60
2022-08-11T01:08:16.071Z,18.50
2022-08-11T01:10:51.636Z,18.50
2022-08-11T01:13:38.963Z,18.40
2022-08-11T01:16:08.646Z,18.40
2022-08-11T01:18:54.713Z,18.40
2022-08-11T01:21:30.860Z,18.40
2022-08-11T01:23:57.476Z,18.40
2022-08-11T01:26:37.974Z,18.30
2022-08-11T01:29:07.904Z,18.30
2022-08-11T01:31:37.332Z,18.30
2022-08-11T01:34:04.326Z,18.30
2022-08-11T01:36:44.098Z,18.20
2022-08-11T01:39:29.273Z,18.20
2022-08-11T01:42:14.451Z,18.20
2022-08-11T01:44:44.041Z,18.10
2022-08-11T01:47:33.423Z,18.10
2022-08-11T01:50:18.867Z,18.10
2022-08-11T01:53:05.829Z,18.10
2022-08-11T01:55:44.811Z,18.10
2022-08-11T01:58:40.809Z,18.00
2022-08-11T02:01:28.839Z,18.00
2022-08-11T02:03:58.620Z,18.00
2022-08-11T02:06:49.423Z,18.00
2022-08-11T02:09:34.944Z,18.00
2022-08-11T02:12:05.210Z,17.90
2022-08-11T02:14:34.502Z,17.90
2022-08-11T02:17:07.233Z,17.90
2022-08-11T02:19:56.602Z,17.90
2022-08-11T02:22:41.900Z,17.80
2022-08-11T02:25:08.539Z,17.80
2022-08-11T02:27:37.591Z,17.80
2022-08-11T02:30:08.483Z,17.70
2022-08-11T02:32:55.343Z,17.80
2022-08-11T02:35:28.883Z,17.70
2022-08-11T02:38:06.572Z,17.70
2022-08-11T02:40:38.553Z,17.70
2022-08-11T02:43:24.675Z,17.70
2022-08-11T02:45:54.759Z,17.60
2022-08-11T02:48:52.514Z,17.60
2022-08-11T02:51:21.999Z,17.60
2022-08-11T02:53:58.145Z,17.50
2022-08-11T02:56:28.297Z,17.50
2022-08-11T02:59:22.818Z,17.50
2022-08-11T03:01:51.129Z,17.50
2022-08-11T03:04:18.783Z,17.40
2022-08-11T03:06:49.519Z,17.40
2022-08-11T03:09:24.592Z,17.40
2022-08-11T03:12:21.127Z,17.40
2022-08-11T03:15:34.144Z,17.40
2022-08-11T03:18:04.046Z,17.50
2022-08-11T03:20:39.181Z,17.50
2022-08-11T03:23:21.229Z,17.50
2022-08-11T03:25:51.174Z,17.50
2022-08-11T03:28:28.929Z,17.40
2022-08-11T03:31:24.876Z,17.50
2022-08-11T03:34:07.201Z,17.50
2022-08-11T03:36:34.113Z,17.50
2022-08-11T03:39:21.098Z,17.50
2022-08-11T03:42:10.060Z,17.50
2022-08-11T03:44:55.844Z,17.50
2022-08-11T03:47:30.009Z,17.50
2022-08-11T03:50:17.187Z,17.40
2022-08-11T03:53:07.241Z,17.40
2022-08-11T03:55:43.764Z,17.40
2022-08-11T03:58:16.250Z,17.40
2022-08-11T04:00:51.163Z,17.40
2022-08-11T04:03:31.046Z,17.40
2022-08-11T04:06:02.470Z,17.40
2022-08-11T04:08:38.211Z,17.40
2022-08-11T04:11:23.696Z,17.40
2022-08-11T04:14:27.757Z,17.40
2022-08-11T04:17:03.341Z,17.40
2022-08-11T04:19:37.440Z,17.50
2022-08-11T04:22:04.216Z,17.50
2022-08-11T04:24:39.793Z,17.60
2022-08-11T04:27:25.169Z,17.60
2022-08-11T04:30:14.904Z,17.70
2022-08-11T04:32:46.695Z,17.70
2022-08-11T04:35:25.630Z,17.80
2022-08-11T04:37:55.145Z,17.90
2022-08-11T04:40:40.070Z,17.90
2022-08-11T04:43:21.823Z,17.90
2022-08-11T04:46:03.595Z,18.10
2022-08-11T04:48:48.829Z,18.10
2022-08-11T04:51:34.008Z,18.30
2022-08-11T04:54:26.346Z,18.50
2022-08-11T04:57:13.499Z,18.70
2022-08-11T04:59:58.832Z,19.00
2022-08-11T05:02:28.386Z,19.20
2022-08-11T05:05:16.718Z,19.40
2022-08-11T05:08:02.242Z,19.40
2022-08-11T05:10:34.077Z,19.40
2022-08-11T05:13:28.764Z,19.70
2022-08-11T05:16:17.419Z,20.70
2022-08-11T05:19:09.597Z,21.10
2022-08-11T05:21:54.920Z,21.60
2022-08-11T05:24:43.276Z,22.70
2022-08-11T05:27:29.153Z,23.60
2022-08-11T05:30:26.831Z,23.40
2022-08-11T05:33:19.811Z,22.70
2022-08-11T05:36:01.551Z,22.00
2022-08-11T05:38:48.792Z,21.70
2022-08-11T05:41:33.907Z,21.80
2022-08-11T05:44:22.298Z,21.70
2022-08-11T05:47:08.239Z,21.60
2022-08-11T05:49:53.513Z,21.60
2022-08-11T05:52:42.731Z,21.60
2022-08-11T05:55:28.658Z,21.70
2022-08-11T05:58:04.711Z,22.10
2022-08-11T06:00:31.683Z,22.50
2022-08-11T06:03:00.922Z,22.60
2022-08-11T06:05:38.445Z,22.70
2022-08-11T06:08:10.628Z,22.80
2022-08-11T06:10:37.958Z,23.00
2022-08-11T06:13:05.059Z,24.00
2022-08-11T06:15:32.346Z,26.00
2022-08-11T06:17:59.162Z,27.70
2022-08-11T06:20:25.915Z,29.10
2022-08-11T06:22:56.552Z,30.50
2022-08-11T06:25:23.706Z,31.30
2022-08-11T06:27:56.419Z,31.60
2022-08-11T06:30:42.612Z,32.00
2022-08-11T06:33:13.439Z,32.90
2022-08-11T06:35:48.358Z,33.70
2022-08-11T06:38:24.394Z,33.90
2022-08-11T06:41:10.347Z,34.10
2022-08-11T06:43:56.030Z,34.30
2022-08-11T06:46:28.692Z,34.60
2022-08-11T06:48:56.196Z,34.90
2022-08-11T06:51:22.903Z,35.40
2022-08-11T06:54:03.477Z,35.70
2022-08-11T06:57:01.696Z,35.60
2022-08-11T06:59:56.588Z,35.90
2022-08-11T07:02:34.028Z,36.00
2022-08-11T07:05:01.638Z,35.60
2022-08-11T07:07:59.419Z,36.20
2022-08-11T07:11:13.761Z,36.20
2022-08-11T07:13:59.039Z,36.60
2022-08-11T07:16:29.268Z,36.80
2022-08-11T07:19:16.513Z,37.10
2022-08-11T07:22:03.948Z,37.30
2022-08-11T07:24:59.704Z,37.50
2022-08-11T07:27:50.222Z,37.60
2022-08-11T07:30:16.925Z,37.80
2022-08-11T07:32:55.194Z,37.90
2022-08-11T07:35:43.040Z,38.40
2022-08-11T07:38:18.168Z,38.30
2022-08-11T07:40:49.336Z,37.70
2022-08-11T07:43:16.199Z,37.20
2022-08-11T07:46:01.606Z,37.30
2022-08-11T07:48:47.062Z,37.40
2022-08-11T07:51:35.002Z,37.50
2022-08-11T07:54:07.491Z,37.70
2022-08-11T07:57:07.342Z,37.70
2022-08-11T08:00:00.574Z,37.80
2022-08-11T08:02:49.811Z,38.10
2022-08-11T08:05:34.864Z,38.20
2022-08-11T08:08:20.245Z,37.00
2022-08-11T08:11:05.620Z,36.90
2022-08-11T08:13:51.034Z,36.50
2022-08-11T08:16:36.489Z,36.50
2022-08-11T08:19:03.245Z,37.10
2022-08-11T08:21:29.956Z,38.00
2022-08-11T08:23:56.881Z,38.20
2022-08-11T08:26:42.238Z,38.50
2022-08-11T08:29:37.123Z,38.70
2022-08-11T08:32:04.005Z,38.10
2022-08-11T08:34:32.350Z,37.90
2022-08-11T08:37:00.330Z,37.80
2022-08-11T08:39:27.080Z,38.20
2022-08-11T08:41:54.679Z,38.60
2022-08-11T08:44:37.687Z,38.70
2022-08-11T08:47:06.164Z,39.10
2022-08-11T08:49:40.638Z,39.50
2022-08-11T08:52:27.802Z,38.80
2022-08-11T08:54:55.817Z,38.00
2022-08-11T08:57:22.968Z,37.50
2022-08-11T08:59:49.815Z,38.00
2022-08-11T09:02:33.561Z,38.40
2022-08-11T09:05:02.231Z,38.20
2022-08-11T09:07:38.457Z,38.70
2022-08-11T09:10:06.416Z,39.30
2022-08-11T09:12:35.878Z,39.60
2022-08-11T09:15:06.075Z,40.20
2022-08-11T09:17:37.082Z,40.60
2022-08-11T09:20:13.386Z,40.90
2022-08-11T09:23:41.300Z,41.20
2022-08-11T09:26:05.139Z,41.50
2022-08-11T09:28:31.876Z,41.50
2022-08-11T09:31:01.214Z,40.80
2022-08-11T09:33:28.425Z,40.20
2022-08-11T09:35:55.168Z,40.10
2022-08-11T09:38:44.960Z,39.90
2022-08-11T09:41:14.134Z,39.70
2022-08-11T09:44:04.310Z,40.00
2022-08-11T09:46:31.376Z,39.80
2022-08-11T09:48:59.128Z,39.40
2022-08-11T09:51:26.183Z,39.80
2022-08-11T09:54:02.861Z,40.10
2022-08-11T09:56:49.370Z,40.00
2022-08-11T09:59:17.531Z,40.00
2022-08-11T10:01:47.284Z,39.30
2022-08-11T10:04:17.814Z,38.50
2022-08-11T10:07:04.583Z,37.70
2022-08-11T10:09:42.128Z,37.10
2022-08-11T10:12:11.134Z,36.30
2022-08-11T10:14:57.695Z,35.70
2022-08-11T10:17:24.673Z,35.20
2022-08-11T10:20:04.288Z,34.50
2022-08-11T10:22:50.967Z,34.00
2022-08-11T10:25:36.501Z,33.60
2022-08-11T10:28:28.238Z,32.90
2022-08-11T10:31:12.619Z,32.30
2022-08-11T10:33:59.797Z,31.80
2022-08-11T10:36:30.585Z,31.30
2022-08-11T10:38:57.382Z,31.00
2022-08-11T10:42:08.719Z,30.80
2022-08-11T10:44:30.027Z,30.80
2022-08-11T10:47:15.507Z,30.80
2022-08-11T10:49:42.270Z,30.80
2022-08-11T10:52:27.683Z,31.00
2022-08-11T10:55:13.190Z,31.10
2022-08-11T10:58:04.340Z,31.10
2022-08-11T11:00:32.394Z,30.80
2022-08-11T11:03:07.128Z,30.80
2022-08-11T11:06:27.549Z,30.70
2022-08-11T11:08:52.839Z,30.70
2022-08-11T11:11:20.896Z,30.50
2022-08-11T11:14:06.795Z,30.20
2022-08-11T11:16:52.408Z,30.10
2022-08-11T11:19:20.824Z,30.20
2022-08-11T11:21:48.237Z,30.30
2022-08-11T11:24:14.997Z,30.50
2022-08-11T11:26:56.241Z,30.40
2022-08-11T11:29:29.760Z,30.30
2022-08-11T11:31:56.456Z,30.20
2022-08-11T11:34:23.133Z,30.30
2022-08-11T11:36:56.823Z,30.20
2022-08-11T11:39:24.272Z,29.80
2022-08-11T11:41:52.284Z,29.60
2022-08-11T11:44:19.018Z,29.50
2022-08-11T11:46:45.900Z,29.70
2022-08-11T11:49:16.793Z,29.70
2022-08-11T11:51:44.720Z,29.70
2022-08-11T11:54:14.004Z,29.70
2022-08-11T11:56:40.716Z,29.90
2022-08-11T11:59:26.185Z,30.20
2022-08-11T12:01:52.903Z,30.00
2022-08-11T12:04:20.304Z,29.90
2022-08-11T12:06:47.204Z,29.60
2022-08-11T12:09:23.311Z,29.40
2022-08-11T12:12:09.892Z,29.40
2022-08-11T12:14:36.625Z,29.60
2022-08-11T12:17:03.349Z,29.70
2022-08-11T12:19:35.610Z,29.70
2022-08-11T12:22:21.360Z,29.60
2022-08-11T12:25:06.859Z,29.70
2022-08-11T12:27:33.602Z,29.70
2022-08-11T12:30:05.970Z,29.60
2022-08-11T12:32:33.098Z,29.50
2022-08-11T12:35:00.007Z,29.60
2022-08-11T12:38:03.779Z,29.80
2022-08-11T12:44:01.578Z,29.90
2022-08-11T12:46:31.925Z,30.10
2022-08-11T12:49:18.352Z,30.20
2022-08-11T12:52:13.915Z,30.40
2022-08-11T12:54:44.613Z,30.60
2022-08-11T12:57:36.472Z,30.70
2022-08-11T13:00:23.952Z,30.60
2022-08-11T13:03:09.467Z,30.30
2022-08-11T13:05:44.571Z,30.10
2022-08-11T13:08:13.991Z,29.90
2022-08-11T13:10:59.246Z,29.80
2022-08-11T13:13:54.623Z,29.80
2022-08-11T13:16:14.895Z,29.90
2022-08-11T13:18:42.872Z,29.90
2022-08-11T13:21:12.951Z,29.80
2022-08-11T13:23:59.595Z,29.60
2022-08-11T13:26:47.212Z,29.30
2022-08-11T13:29:19.413Z,29.20
2022-08-11T13:31:46.377Z,29.30
2022-08-11T13:34:13.100Z,29.40
2022-08-11T13:36:40.846Z,29.40
2022-08-11T13:39:07.549Z,29.40
2022-08-11T13:41:41.803Z,29.60
2022-08-11T13:44:09.371Z,29.60
2022-08-11T13:46:36.889Z,29.70
2022-08-11T13:49:04.078Z,29.80
2022-08-11T13:51:34.295Z,30.00
2022-08-11T13:54:31.194Z,30.00
2022-08-11T13:57:00.437Z,29.60
2022-08-11T13:59:30.008Z,29.40
2022-08-11T14:02:21.286Z,29.40
2022-08-11T14:04:50.335Z,29.40
2022-08-11T14:07:17.846Z,29.60
2022-08-11T14:09:44.954Z,29.70
2022-08-11T14:12:36.642Z,29.80
2022-08-11T14:15:08.480Z,29.70
2022-08-11T14:17:46.732Z,29.70
2022-08-11T14:28:41.792Z,30.40
2022-08-11T14:31:12.035Z,30.30
2022-08-11T14:33:59.255Z,30.10
2022-08-11T14:36:26.083Z,29.80
2022-08-11T14:38:53.977Z,29.40
2022-08-11T14:42:09.963Z,29.20
2022-08-11T14:44:44.916Z,28.90
2022-08-11T14:47:23.041Z,28.60
2022-08-11T14:50:04.966Z,28.40
2022-08-11T14:52:37.319Z,28.40
2022-08-11T14:55:22.752Z,28.50
2022-08-11T14:57:55.432Z,28.60
2022-08-11T15:00:23.326Z,28.70
2022-08-11T15:03:08.461Z,28.60
2022-08-11T15:05:36.475Z,28.50
2022-08-11T15:08:03.231Z,28.40
2022-08-11T15:10:29.928Z,28.40
2022-08-11T15:12:56.678Z,28.50
2022-08-11T15:15:42.162Z,28.60
2022-08-11T15:18:10.608Z,28.70
2022-08-11T15:20:56.109Z,28.90
2022-08-11T15:23:41.498Z,29.00
2022-08-11T15:26:18.835Z,29.30
2022-08-11T15:29:05.116Z,29.20
2022-08-11T15:31:44.302Z,28.80
2022-08-11T15:34:34.640Z,28.60
2022-08-11T15:37:21.864Z,28.50
2022-08-11T15:40:31.462Z,28.40
2022-08-11T15:43:17.700Z,28.30
2022-08-11T15:45:49.200Z,28.30
2022-08-11T15:48:39.151Z,28.30
2022-08-11T15:51:26.147Z,28.30
2022-08-11T15:53:57.015Z,28.30
2022-08-11T15:56:24.922Z,28.30
2022-08-11T15:59:40.807Z,28.30
2022-08-11T16:02:16.270Z,28.30
2022-08-11T16:04:43.735Z,28.20
2022-08-11T16:07:11.707Z,28.10
2022-08-11T16:09:51.916Z,28.00
2022-08-11T16:12:23.224Z,28.10
2022-08-11T16:15:09.310Z,28.10
2022-08-11T16:17:44.471Z,28.10
2022-08-11T16:20:14.449Z,28.10
2022-08-11T16:23:01.451Z,28.00
2022-08-11T16:27:02.834Z,28.00
2022-08-11T16:28:16.968Z,28.00
2022-08-11T16:30:44.312Z,27.90
2022-08-11T16:33:48.255Z,27.90
2022-08-11T16:36:16.356Z,27.80
2022-08-11T16:38:43.065Z,27.80
2022-08-11T16:41:11.722Z,27.70
2022-08-11T16:43:58.809Z,27.60
2022-08-11T16:46:44.195Z,27.60
2022-08-11T16:49:12.047Z,27.50
2022-08-11T16:51:38.812Z,27.50
2022-08-11T16:54:06.400Z,27.40
2022-08-11T16:56:41.866Z,27.30
2022-08-11T16:59:17.051Z,27.30
2022-08-11T17:01:44.885Z,27.20
2022-08-11T17:04:33.502Z,27.20
2022-08-11T17:07:23.600Z,27.20
2022-08-11T17:10:39.201Z,27.10
2022-08-11T17:13:11.730Z,27.10
2022-08-11T17:15:59.889Z,27.00
2022-08-11T17:18:43.092Z,27.00
2022-08-11T17:21:20.394Z,26.90
2022-08-11T17:23:49.879Z,26.80
2022-08-11T17:26:21.011Z,26.70
2022-08-11T17:28:51.403Z,26.60
2022-08-11T17:31:37.299Z,26.60
2022-08-11T17:34:22.683Z,26.50
2022-08-11T17:36:51.402Z,26.40
2022-08-11T17:39:18.165Z,26.30
2022-08-11T17:42:03.708Z,26.20
2022-08-11T17:44:49.024Z,26.10
2022-08-11T17:47:34.337Z,26.00
2022-08-11T17:50:16.615Z,25.80
2022-08-11T17:53:02.828Z,25.80
2022-08-11T17:55:51.851Z,25.60
2022-08-11T17:58:38.664Z,25.50
2022-08-11T18:01:09.508Z,25.40
2022-08-11T18:03:39.710Z,25.20
2022-08-11T18:06:07.308Z,25.10
2022-08-11T18:08:59.389Z,25.00
2022-08-11T18:12:00.248Z,25.00
2022-08-11T18:14:50.221Z,24.90
2022-08-11T18:17:35.642Z,24.70
2022-08-11T18:20:21.071Z,24.60
2022-08-11T18:23:06.477Z,24.40
2022-08-11T18:25:52.927Z,24.30
2022-08-11T18:28:40.490Z,24.10
2022-08-11T18:31:25.932Z,24.10
2022-08-11T18:34:12.112Z,24.00
2022-08-11T18:36:59.039Z,23.80
2022-08-11T18:39:45.851Z,23.70
2022-08-11T18:42:41.497Z,23.60
2022-08-11T18:45:28.444Z,23.50
2022-08-11T18:48:17.387Z,23.30
2022-08-11T18:51:31.586Z,23.30
2022-08-11T18:54:10.189Z,23.20
2022-08-11T18:56:55.508Z,23.10
2022-08-11T18:59:42.478Z,23.00
2022-08-11T19:02:27.843Z,22.90
2022-08-11T19:05:13.140Z,22.80
2022-08-11T19:07:58.503Z,22.60
2022-08-11T19:10:43.912Z,22.60
2022-08-11T19:13:29.366Z,22.60
2022-08-11T19:16:14.922Z,22.50
2022-08-11T19:19:00.030Z,22.40
2022-08-11T19:21:45.515Z,22.30
2022-08-11T19:24:30.783Z,22.30
2022-08-11T19:27:16.194Z,22.30
2022-08-11T19:30:05.298Z,22.20
2022-08-11T19:32:59.092Z,22.20
2022-08-11T19:35:44.413Z,22.10
2022-08-11T19:38:29.762Z,22.20
2022-08-11T19:41:15.768Z,22.10
2022-08-11T19:44:03.495Z,22.00
2022-08-11T19:46:48.561Z,21.90
2022-08-11T19:49:33.779Z,21.80
2022-08-11T19:52:19.064Z,21.70
2022-08-11T19:55:04.638Z,21.60
2022-08-11T19:57:49.995Z,21.60
2022-08-11T20:00:35.975Z,21.60
2022-08-11T20:03:22.446Z,21.50
2022-08-11T20:06:07.639Z,21.50
2022-08-11T20:08:56.417Z,21.50
2022-08-11T20:11:43.907Z,21.40
2022-08-11T20:14:29.229Z,21.30
2022-08-11T20:17:15.707Z,21.20
2022-08-11T20:22:50.991Z,21.10
2022-08-11T20:25:36.654Z,21.00
2022-08-11T20:28:22.596Z,20.90
2022-08-11T20:31:07.983Z,20.80
2022-08-11T20:33:53.567Z,20.80
2022-08-11T20:36:38.921Z,20.80
2022-08-11T20:39:24.351Z,20.90
2022-08-11T20:42:09.735Z,20.80
2022-08-11T20:44:55.624Z,20.80
2022-08-11T20:47:56.076Z,20.70
2022-08-11T20:50:46.000Z,20.60
2022-08-11T20:53:31.322Z,20.60
2022-08-11T20:56:21.717Z,20.40
2022-08-11T20:59:18.423Z,20.30
2022-08-11T21:02:09.445Z,20.20
2022-08-11T21:04:56.542Z,20.10
2022-08-11T21:07:42.461Z,20.00
2022-08-11T21:10:27.923Z,20.00
2022-08-11T21:13:26.044Z,20.00
2022-08-11T21:16:25.054Z,19.90
2022-08-11T21:20:00.644Z,19.90
2022-08-11T21:22:28.128Z,19.80
2022-08-11T21:25:13.755Z,19.80
2022-08-11T21:27:59.190Z,19.70
2022-08-11T21:30:44.651Z,19.70
2022-08-11T21:33:30.045Z,19.60
2022-08-11T21:36:15.426Z,19.60
2022-08-11T21:39:00.799Z,19.50
2022-08-11T21:41:48.952Z,19.40
2022-08-11T21:44:34.683Z,19.30
2022-08-11T21:47:42.480Z,19.30
2022-08-11T21:50:25.682Z,19.30
2022-08-11T21:53:11.689Z,19.20
2022-08-11T21:55:57.103Z,19.20
2022-08-11T21:58:43.652Z,19.20
2022-08-11T22:01:28.797Z,19.20
2022-08-11T22:04:19.810Z,19.20
2022-08-11T22:07:05.299Z,19.20
2022-08-11T22:09:50.701Z,19.10
2022-08-11T22:12:41.057Z,19.10
2022-08-11T22:15:29.615Z,19.10
2022-08-11T22:18:14.916Z,19.00
2022-08-11T22:21:00.029Z,19.00
2022-08-11T22:23:45.485Z,19.00
2022-08-11T22:26:30.839Z,18.90
2022-08-11T22:29:17.005Z,18.90
2022-08-11T22:32:02.312Z,18.80
2022-08-11T22:34:53.290Z,18.70
2022-08-11T22:37:39.199Z,18.70
2022-08-11T22:40:25.050Z,18.60
2022-08-11T22:43:10.439Z,18.60
2022-08-11T22:45:56.107Z,18.50
2022-08-11T22:48:41.447Z,18.50
2022-08-11T22:51:26.591Z,18.40
2022-08-11T22:54:12.161Z,18.40
2022-08-11T22:56:57.288Z,18.40
2022-08-11T22:59:42.742Z,18.40
2022-08-11T23:02:28.126Z,18.30
2022-08-11T23:05:13.606Z,18.20
2022-08-11T23:07:58.741Z,18.20
2022-08-11T23:10:43.882Z,18.10
2022-08-11T23:13:29.400Z,18.10
2022-08-11T23:16:14.727Z,18.00
2022-08-11T23:19:00.194Z,18.00
2022-08-11T23:21:49.340Z,17.90
2022-08-11T23:24:34.922Z,17.90
2022-08-11T23:27:20.847Z,17.90
2022-08-11T23:30:06.260Z,18.00
2022-08-11T23:32:51.292Z,17.90
2022-08-11T23:35:39.532Z,17.90
2022-08-11T23:38:37.271Z,17.80
2022-08-11T23:41:22.854Z,17.80
2022-08-11T23:44:08.200Z,17.80
2022-08-11T23:46:53.510Z,17.70
2022-08-11T23:49:38.962Z,17.70
2022-08-11T23:52:24.198Z,17.60
2022-08-11T23:55:09.574Z,17.60
2022-08-11T23:57:54.793Z,17.70
